Time;durP1;ratioP1;P1;durP2;ratioP2;P2;SDS_P1;SDS_P2;PMS_P1;PMS_P2;Temp;Humidity;BMP_temperature;BMP_pressure;BME280_temperature;BME280_humidity;BME280_pressure;Samples;Min_cycle;Max_cycle;Signal;HPM_P1;HPM_P2
2022/11/20 00:00:19;;;;;;;54.33;26.73;;;;;;;-6.55;74.17;99906.47;2133298;80;21037;-82
2022/11/20 00:03:22;;;;;;;54.33;26.33;;;;;;;-6.64;74.25;99917.18;2188314;79;21068;-82
2022/11/20 00:06:26;;;;;;;50.63;26.23;;;;;;;-6.68;74.43;99918.19;2182025;80;21036;-82
2022/11/20 00:09:31;;;;;;;53.83;25.72;;;;;;;-6.69;74.71;99912.20;2131162;81;21638;-82
2022/11/20 00:12:32;;;;;;;53.42;25.92;;;;;;;-6.66;74.81;99914.65;2171696;81;20998;-82
2022/11/20 00:15:34;;;;;;;53.08;25.65;;;;;;;-6.64;74.75;99912.02;2177768;80;21459;-82
2022/11/20 00:18:42;;;;;;;50.78;25.35;;;;;;;-6.62;74.66;99906.31;2204812;80;20954;-83
2022/11/20 00:21:44;;;;;;;54.10;25.77;;;;;;;-6.64;74.95;99899.95;2182028;81;21160;-83
2022/11/20 00:24:45;;;;;;;55.33;26.50;;;;;;;-6.67;74.93;99900.50;2177999;81;21093;-83
2022/11/20 00:27:46;;;;;;;53.20;25.50;;;;;;;-6.73;75.04;99907.20;2171517;81;21506;-82
2022/11/20 00:30:50;;;;;;;55.70;27.10;;;;;;;-6.77;75.15;99906.05;2128191;81;22135;-82
2022/11/20 00:33:53;;;;;;;53.40;26.05;;;;;;;-6.77;75.35;99904.76;2158984;80;21092;-83
2022/11/20 00:36:54;;;;;;;57.90;27.57;;;;;;;-6.75;75.31;99903.88;2183026;79;21045;-82
2022/11/20 00:39:59;;;;;;;58.00;26.50;;;;;;;-6.79;75.43;99894.94;2217791;79;21057;-82
2022/11/20 00:43:07;;;;;;;59.42;27.58;;;;;;;-6.80;75.52;99900.19;2178619;81;21142;-82
2022/11/20 00:46:23;;;;;;;54.33;25.97;;;;;;;-6.78;75.64;99899.67;2175797;81;21571;-82
2022/11/20 00:49:24;;;;;;;58.73;27.48;;;;;;;-6.73;75.53;99893.02;2188872;80;21533;-82
2022/11/20 00:52:30;;;;;;;53.08;26.37;;;;;;;-6.71;75.60;99898.96;2163867;80;21077;-82
2022/11/20 00:55:32;;;;;;;59.20;26.35;;;;;;;-6.68;75.52;99901.41;2200272;80;21073;-82
2022/11/20 00:58:44;;;;;;;56.50;26.40;;;;;;;-6.65;75.42;99913.73;2175709;80;21454;-82
2022/11/20 01:01:46;;;;;;;52.38;25.97;;;;;;;-6.61;75.33;99914.02;2192214;79;21024;-82
2022/11/20 01:04:48;;;;;;;55.60;26.75;;;;;;;-6.58;75.27;99909.17;2192229;80;21016;-82
2022/11/20 01:07:52;;;;;;;58.45;26.90;;;;;;;-6.57;75.28;99919.42;2194355;80;21052;-82
2022/11/20 01:11:01;;;;;;;55.80;26.57;;;;;;;-6.55;75.39;99915.50;2186429;80;21045;-82
2022/11/20 01:14:07;;;;;;;57.80;27.23;;;;;;;-6.54;75.46;99919.30;2195715;80;21072;-82
2022/11/20 01:17:13;;;;;;;58.75;27.80;;;;;;;-6.54;75.40;99914.59;2195371;80;21093;-82
2022/11/20 01:20:19;;;;;;;58.02;28.07;;;;;;;-6.53;75.74;99914.99;2193376;78;21013;-82
2022/11/20 01:23:21;;;;;;;61.08;27.40;;;;;;;-6.53;75.87;99921.45;2167483;81;21019;-82
2022/11/20 01:26:28;;;;;;;61.65;26.82;;;;;;;-6.55;76.23;99924.08;2186536;81;20973;-82
2022/11/20 01:29:32;;;;;;;57.60;27.17;;;;;;;-6.57;76.33;99925.04;2165870;82;21480;-82
2022/11/20 01:32:40;;;;;;;59.05;29.77;;;;;;;-6.62;76.36;99923.92;2189533;80;21521;-82
2022/11/20 01:35:43;;;;;;;58.50;29.23;;;;;;;-6.61;76.25;99924.34;2195937;80;21023;-82
2022/11/20 01:38:45;;;;;;;61.27;28.63;;;;;;;-6.59;76.30;99921.67;2194587;80;21334;-82
2022/11/20 01:45:56;;;;;;;60.75;28.70;;;;;;;-6.55;76.24;99911.17;2192484;80;21055;-82
2022/11/20 01:49:16;;;;;;;57.53;26.93;;;;;;;-6.53;76.08;99916.28;2151719;80;21097;-84
2022/11/20 01:52:39;;;;;;;59.77;28.40;;;;;;;-6.51;76.14;99909.30;2195276;80;21056;-83
2022/11/20 01:55:51;;;;;;;62.23;28.70;;;;;;;-6.48;76.19;99914.33;2194563;80;21084;-83
2022/11/20 01:58:58;;;;;;;58.92;27.30;;;;;;;-6.48;76.19;99905.29;2192889;80;21560;-84
2022/11/20 02:02:02;;;;;;;59.83;28.67;;;;;;;-6.46;76.20;99905.23;2164679;80;21033;-83
2022/11/20 02:05:33;;;;;;;65.97;30.27;;;;;;;-6.46;76.32;99900.91;2163904;80;21082;-83
2022/11/20 02:08:43;;;;;;;59.25;28.45;;;;;;;-6.45;76.38;99905.62;2183120;80;21065;-83
2022/11/20 02:11:44;;;;;;;57.40;29.00;;;;;;;-6.49;76.50;99901.04;2159860;80;21044;-83
2022/11/20 02:14:47;;;;;;;60.52;28.30;;;;;;;-6.53;76.48;99896.92;2184671;80;22374;-83
2022/11/20 02:17:50;;;;;;;62.15;28.75;;;;;;;-6.53;76.34;99899.50;2192588;80;21088;-83
2022/11/20 02:21:04;;;;;;;58.33;28.45;;;;;;;-6.55;76.27;99904.72;2190662;80;21117;-83
2022/11/20 02:24:16;;;;;;;57.88;27.82;;;;;;;-6.52;76.35;99892.59;2193630;80;21082;-83
2022/11/20 02:27:22;;;;;;;60.80;28.10;;;;;;;-6.51;76.30;99896.84;2196927;80;21040;-83
2022/11/20 02:30:29;;;;;;;65.47;28.13;;;;;;;-6.54;76.38;99891.35;2152569;80;21051;-83
2022/11/20 02:33:32;;;;;;;58.30;28.15;;;;;;;-6.54;76.40;99890.06;2194040;80;21739;-83
2022/11/20 02:36:36;;;;;;;62.60;27.17;;;;;;;-6.53;76.41;99885.31;2191945;80;21054;-83
2022/11/20 02:39:44;;;;;;;58.50;27.82;;;;;;;-6.52;76.36;99892.59;2191008;80;21098;-83
2022/11/20 02:42:48;;;;;;;60.83;28.60;;;;;;;-6.59;76.30;99891.56;2192487;80;21063;-83
2022/11/20 02:45:55;;;;;;;53.00;26.40;;;;;;;-6.58;76.49;99886.78;2157277;80;21057;-83
2022/11/20 02:48:58;;;;;;;58.50;27.70;;;;;;;-6.57;76.42;99889.73;2157999;80;21012;-83
2022/11/20 02:52:02;;;;;;;58.20;29.67;;;;;;;-6.61;76.39;99885.63;2149635;82;21014;-82
2022/11/20 02:55:05;;;;;;;57.93;28.75;;;;;;;-6.62;76.42;99888.25;2127288;83;21082;-83
2022/11/20 02:58:06;;;;;;;62.50;28.43;;;;;;;-6.63;76.47;99892.58;2152922;82;21085;-81
2022/11/20 03:01:09;;;;;;;58.03;27.50;;;;;;;-6.66;76.56;99889.30;2150775;82;21052;-83
2022/11/20 03:04:13;;;;;;;56.47;27.20;;;;;;;-6.62;76.58;99894.70;2153885;82;21607;-83
2022/11/20 03:07:14;;;;;;;60.10;26.37;;;;;;;-6.61;76.37;99893.82;2126431;82;20992;-83
2022/11/20 03:10:15;;;;;;;57.37;27.93;;;;;;;-6.70;76.10;99891.17;2152852;82;21048;-83
2022/11/20 03:13:18;;;;;;;55.67;27.23;;;;;;;-6.71;76.03;99895.92;2150202;82;21037;-83
2022/11/20 03:16:23;;;;;;;58.33;27.70;;;;;;;-6.69;76.62;99891.55;2131662;82;21315;-83
2022/11/20 03:19:26;;;;;;;55.73;27.80;;;;;;;-6.71;76.01;99900.25;2149385;82;21021;-84
2022/11/20 03:22:29;;;;;;;60.07;28.87;;;;;;;-6.73;75.90;99891.73;2128886;83;21002;-83
2022/11/20 03:25:33;;;;;;;63.93;29.13;;;;;;;-6.76;75.90;99877.20;2153002;82;21563;-83
2022/11/20 03:28:34;;;;;;;64.13;30.20;;;;;;;-6.78;75.68;99881.16;2148707;82;21055;-82
2022/11/20 03:31:42;;;;;;;72.13;30.50;;;;;;;-6.82;75.77;99893.78;2152686;81;21001;-83
2022/11/20 03:34:43;;;;;;;59.97;29.33;;;;;;;-6.84;75.94;99894.31;2150881;82;21057;-83
2022/11/20 03:37:45;;;;;;;61.25;29.52;;;;;;;-6.84;75.90;99898.19;2128530;82;21006;-83
2022/11/20 03:40:52;;;;;;;65.07;30.83;;;;;;;-6.87;75.87;99891.86;2134457;83;21171;-83
2022/11/20 03:44:01;;;;;;;56.98;28.65;;;;;;;-6.97;75.88;99902.61;2131644;81;21095;-83
2022/11/20 03:47:03;;;;;;;56.93;27.63;;;;;;;-7.14;75.83;99898.95;2135510;81;21089;-83
2022/11/20 03:50:06;;;;;;;57.60;27.63;;;;;;;-7.30;75.92;99896.12;2122315;81;21037;-83
2022/11/20 03:53:12;;;;;;;59.77;27.40;;;;;;;-7.41;76.11;99893.11;2167055;81;21026;-83
2022/11/20 03:56:16;;;;;;;53.33;27.23;;;;;;;-7.55;76.10;99894.93;2178495;80;21049;-82
2022/11/20 03:59:24;;;;;;;69.50;28.90;;;;;;;-7.70;76.41;99897.64;2198173;80;22368;-83
2022/11/20 04:02:29;;;;;;;66.07;30.73;;;;;;;-7.77;76.65;99901.36;2184724;80;21092;-83
2022/11/20 04:05:30;;;;;;;64.53;28.97;;;;;;;-7.80;76.91;99896.74;2194305;80;21081;-83
2022/11/20 04:08:32;;;;;;;68.67;31.67;;;;;;;-7.80;77.02;99896.29;2166858;80;20966;-83
2022/11/20 04:11:37;;;;;;;66.37;29.90;;;;;;;-7.78;77.10;99897.53;2187476;80;21136;-83
2022/11/20 04:14:40;;;;;;;60.57;27.80;;;;;;;-7.77;77.04;99906.51;2143894;80;21045;-82
2022/11/20 04:17:45;;;;;;;66.10;30.80;;;;;;;-7.79;77.07;99897.98;2188893;80;21030;-83
2022/11/20 04:20:48;;;;;;;61.97;29.70;;;;;;;-7.81;77.08;99904.92;2169586;81;21527;-83
2022/11/20 04:23:52;;;;;;;68.77;29.67;;;;;;;-7.82;77.08;99909.70;2178611;80;21547;-83
2022/11/20 04:26:54;;;;;;;58.73;27.27;;;;;;;-7.79;77.14;99913.90;2177489;81;21002;-83
2022/11/20 04:29:56;;;;;;;59.23;26.83;;;;;;;-7.77;76.63;99914.23;2173510;81;21044;-82
2022/11/20 04:32:57;;;;;;;59.73;27.33;;;;;;;-7.80;76.42;99906.59;2180829;81;21013;-83
2022/11/20 04:36:07;;;;;;;56.07;27.10;;;;;;;-7.80;76.52;99904.47;2183830;81;21026;-82
2022/11/20 04:39:15;;;;;;;63.08;27.75;;;;;;;-7.84;76.79;99907.61;2132817;81;21067;-83
2022/11/20 04:42:30;;;;;;;59.87;28.27;;;;;;;-7.85;76.90;99903.83;2164268;81;21071;-83
2022/11/20 04:45:32;;;;;;;52.80;27.00;;;;;;;-7.83;77.03;99900.27;2193251;79;20987;-82
2022/11/20 04:48:35;;;;;;;54.37;25.33;;;;;;;-7.82;76.89;99894.23;2183331;79;21016;-83
2022/11/20 04:51:38;;;;;;;58.60;28.33;;;;;;;-7.83;76.77;99889.96;2200583;79;21054;-83
2022/11/20 04:54:38;;;;;;;55.83;26.80;;;;;;;-7.81;76.90;99888.18;2178032;80;21045;-83
2022/11/20 04:57:39;;;;;;;52.23;26.67;;;;;;;-7.76;76.89;99882.87;2151164;81;20986;-83
2022/11/20 05:00:41;;;;;;;51.43;24.70;;;;;;;-7.75;76.79;99872.48;2184024;81;21010;-84
2022/11/20 05:03:43;;;;;;;57.87;27.03;;;;;;;-7.75;76.94;99872.48;2180466;81;21073;-84
2022/11/20 05:06:45;;;;;;;57.17;26.07;;;;;;;-7.74;77.02;99872.90;2180177;80;21076;-83
2022/11/20 05:09:48;;;;;;;50.23;23.30;;;;;;;-7.69;76.97;99871.42;2177351;80;21553;-84
2022/11/20 05:12:52;;;;;;;54.33;25.90;;;;;;;-7.71;76.56;99868.92;2179290;81;21033;-83
2022/11/20 05:15:53;;;;;;;57.67;27.27;;;;;;;-7.70;76.58;99866.72;2177244;81;21643;-83
2022/11/20 05:18:55;;;;;;;53.03;25.20;;;;;;;-7.66;76.86;99861.00;2182506;81;21091;-84
2022/11/20 05:21:56;;;;;;;55.77;24.17;;;;;;;-7.62;76.77;99858.71;2169130;80;21521;-84
2022/11/20 05:24:57;;;;;;;58.40;25.70;;;;;;;-7.62;76.52;99860.00;2182810;80;21066;-83
2022/11/20 05:28:01;;;;;;;58.03;28.03;;;;;;;-7.61;76.77;99859.55;2191671;80;21080;-83
2022/11/20 05:31:11;;;;;;;55.33;25.73;;;;;;;-7.60;76.79;99856.92;2189955;80;21105;-83
2022/11/20 05:34:13;;;;;;;64.85;29.12;;;;;;;-7.61;76.79;99851.36;2184994;80;21009;-83
2022/11/20 05:37:17;;;;;;;71.30;29.73;;;;;;;-7.59;76.94;99848.73;2187812;80;21135;-83
2022/11/20 05:40:18;;;;;;;65.53;29.90;;;;;;;-7.60;76.95;99861.20;2186296;80;21503;-83
2022/11/20 05:43:20;;;;;;;57.70;27.27;;;;;;;-7.64;77.00;99863.07;2183526;80;21110;-83
2022/11/20 05:46:21;;;;;;;57.27;26.97;;;;;;;-7.73;77.03;99865.55;2191094;80;21051;-83
2022/11/20 05:49:23;;;;;;;63.03;27.60;;;;;;;-7.84;77.20;99859.13;2187591;80;21065;-83
2022/11/20 05:52:24;;;;;;;60.27;27.47;;;;;;;-7.89;77.10;99849.81;2135659;82;21052;-83
2022/11/20 05:55:27;;;;;;;59.37;26.97;;;;;;;-7.89;77.10;99852.39;2147184;83;21306;-83
2022/11/20 05:58:28;;;;;;;59.47;29.70;;;;;;;-7.88;77.39;99849.39;2129351;83;21013;-83
2022/11/20 06:01:31;;;;;;;64.43;28.77;;;;;;;-7.86;77.44;99854.47;2173585;81;21041;-83
2022/11/20 06:04:32;;;;;;;63.53;28.23;;;;;;;-7.84;77.47;99861.70;2175639;80;20975;-84
2022/11/20 06:07:33;;;;;;;60.17;28.97;;;;;;;-7.86;77.35;99854.02;2156794;81;21058;-83
2022/11/20 06:10:36;;;;;;;58.87;27.17;;;;;;;-7.83;77.44;99859.51;2172116;81;21424;-84
2022/11/20 06:13:37;;;;;;;58.30;25.73;;;;;;;-7.80;77.07;99849.09;2179870;81;21109;-83
2022/11/20 06:16:40;;;;;;;53.57;25.90;;;;;;;-7.83;76.70;99855.64;2176565;81;21544;-82
2022/11/20 06:19:41;;;;;;;56.67;26.83;;;;;;;-7.85;76.76;99851.85;2173294;81;21331;-83
2022/11/20 06:22:44;;;;;;;57.80;26.73;;;;;;;-7.87;76.92;99848.48;2137270;81;21570;-83
2022/11/20 06:25:45;;;;;;;66.17;29.60;;;;;;;-7.94;76.92;99847.88;2155962;82;21627;-83
2022/11/20 06:28:48;;;;;;;65.33;31.10;;;;;;;-8.04;76.97;99840.09;2154421;82;21084;-83
2022/11/20 06:31:50;;;;;;;61.83;28.97;;;;;;;-8.06;77.14;99832.03;2154735;82;21053;-83
2022/11/20 06:34:54;;;;;;;66.67;31.90;;;;;;;-8.04;77.30;99837.52;2153557;82;21041;-83
2022/11/20 06:37:56;;;;;;;82.37;38.97;;;;;;;-8.00;77.54;99841.65;2155051;82;21074;-83
2022/11/20 06:40:57;;;;;;;78.10;37.90;;;;;;;-7.93;77.62;99841.83;2152257;82;21139;-83
2022/11/20 06:44:05;;;;;;;77.37;35.70;;;;;;;-7.84;77.84;99835.48;2131349;82;21478;-83
2022/11/20 06:47:08;;;;;;;70.57;29.80;;;;;;;-7.71;78.00;99841.03;2193748;80;20952;-83
2022/11/20 06:50:09;;;;;;;64.57;30.23;;;;;;;-7.56;78.09;99837.86;2196237;79;21579;-83
2022/11/20 06:53:10;;;;;;;63.60;30.00;;;;;;;-7.39;78.24;99838.94;2173901;81;21473;-83
2022/11/20 06:56:11;;;;;;;58.97;29.33;;;;;;;-7.21;78.28;99839.48;2162299;80;21413;-84
2022/11/20 06:59:12;;;;;;;55.90;27.13;;;;;;;-7.07;78.03;99828.16;2187112;80;21066;-83
2022/11/20 07:02:15;;;;;;;57.97;27.20;;;;;;;-7.00;77.78;99830.89;2191000;80;21496;-83
2022/11/20 07:05:17;;;;;;;55.90;26.83;;;;;;;-6.94;77.77;99834.95;2191241;79;21064;-83
2022/11/20 07:08:18;;;;;;;58.13;28.53;;;;;;;-6.92;77.76;99835.73;2195744;80;21046;-83
2022/11/20 07:11:19;;;;;;;58.73;27.23;;;;;;;-6.86;77.93;99838.06;2191684;80;20974;-84
2022/11/20 07:14:20;;;;;;;54.10;25.57;;;;;;;-6.84;77.81;99839.27;2162513;82;21044;-84
2022/11/20 07:17:23;;;;;;;52.67;27.17;;;;;;;-6.83;77.91;99841.80;2192561;79;21512;-83
2022/11/20 07:20:24;;;;;;;58.80;28.60;;;;;;;-6.72;78.10;99837.94;2170216;80;21571;-84
2022/11/20 07:23:25;;;;;;;55.83;28.13;;;;;;;-6.62;78.18;99834.88;2178655;81;21069;-83
2022/11/20 07:26:26;;;;;;;54.77;29.00;;;;;;;-6.49;78.13;99833.09;2179983;81;20957;-83
2022/11/20 07:29:27;;;;;;;59.97;28.23;;;;;;;-6.39;78.19;99828.76;2165152;81;21021;-85
2022/11/20 07:32:32;;;;;;;61.43;28.77;;;;;;;-6.21;78.28;99836.60;2185630;79;21068;-82
2022/11/20 07:35:36;;;;;;;59.00;29.65;;;;;;;-6.07;78.31;99836.82;2170336;80;21586;-84
2022/11/20 07:38:38;;;;;;;61.53;29.87;;;;;;;-5.90;78.34;99832.98;2186416;79;21634;-83
2022/11/20 07:41:39;;;;;;;57.70;28.90;;;;;;;-5.78;78.24;99829.46;2191960;79;20946;-89
2022/11/20 07:44:40;;;;;;;69.10;31.20;;;;;;;-5.68;78.21;99820.39;2191002;79;21462;-75
2022/11/20 07:47:41;;;;;;;55.10;26.70;;;;;;;-5.52;78.30;99816.17;2194951;79;21037;-81
2022/11/20 07:50:42;;;;;;;63.65;30.62;;;;;;;-5.36;77.93;99820.15;2186574;79;21935;-84
2022/11/20 07:53:43;;;;;;;62.03;31.90;;;;;;;-5.22;78.12;99817.73;2178957;81;21006;-81
2022/11/20 07:56:44;;;;;;;63.75;31.10;;;;;;;-4.83;78.21;99813.27;2183140;81;20994;-80
2022/11/20 07:59:45;;;;;;;61.20;30.57;;;;;;;-4.38;78.43;99813.14;2180367;81;21069;-80
2022/11/20 08:02:47;;;;;;;61.40;30.43;;;;;;;-3.94;78.07;99811.23;2183691;81;21045;-76
2022/11/20 08:05:48;;;;;;;63.85;29.20;;;;;;;-3.56;77.99;99803.97;2177941;81;21028;-80
2022/11/20 08:08:49;;;;;;;56.68;28.65;;;;;;;-3.12;77.13;99801.95;2176388;81;21001;-79
2022/11/20 08:15:09;;;;;;;62.90;29.02;;;;;;;-2.41;77.20;99797.82;2181768;81;20986;-81
2022/11/20 08:18:12;;;;;;;60.25;30.88;;;;;;;-1.96;76.55;99801.98;2182368;81;21055;-81
2022/11/20 08:21:13;;;;;;;59.65;30.23;;;;;;;-1.59;76.26;99797.90;2125391;82;21511;-82
2022/11/20 08:24:14;;;;;;;57.48;29.27;;;;;;;-1.04;76.24;99797.87;2182526;81;21042;-82
2022/11/20 08:27:15;;;;;;;55.35;28.15;;;;;;;-0.54;75.88;99794.97;2186846;81;21030;-84
2022/11/20 08:30:16;;;;;;;54.38;27.73;;;;;;;-0.08;75.21;99797.05;2184038;81;22200;-83
2022/11/20 08:33:18;;;;;;;56.85;29.12;;;;;;;0.15;74.27;99795.44;2180813;81;21027;-78
2022/11/20 08:36:21;;;;;;;51.98;28.42;;;;;;;0.40;74.58;99781.01;2180372;81;20964;-81
2022/11/20 08:39:22;;;;;;;52.50;28.85;;;;;;;0.81;73.90;99780.24;2174143;80;21066;-83
2022/11/20 08:42:23;;;;;;;53.58;29.00;;;;;;;0.99;72.82;99776.77;2181640;81;20979;-80
2022/11/20 08:45:24;;;;;;;50.52;27.05;;;;;;;1.12;72.93;99772.27;2183029;81;21072;-78
2022/11/20 08:48:25;;;;;;;52.45;28.15;;;;;;;1.30;72.01;99771.38;2180901;80;20989;-77
2022/11/20 08:51:27;;;;;;;51.90;27.82;;;;;;;1.30;71.97;99771.38;2144589;82;21104;-80
2022/11/20 08:54:28;;;;;;;54.95;27.87;;;;;;;1.55;71.86;99770.34;2148112;81;21857;-76
2022/11/20 08:57:32;;;;;;;49.48;27.93;;;;;;;1.53;69.96;99774.38;2146895;82;21051;-80
2022/11/20 09:00:34;;;;;;;50.70;27.02;;;;;;;1.15;69.14;99768.59;2137010;83;21140;-81
2022/11/20 09:03:35;;;;;;;50.48;27.95;;;;;;;1.11;70.46;99756.24;2132101;82;21567;-79
2022/11/20 09:06:36;;;;;;;49.15;26.70;;;;;;;1.39;70.34;99758.91;2137842;82;21299;-85
2022/11/20 09:09:37;;;;;;;45.60;25.50;;;;;;;1.76;70.64;99758.21;2153936;82;21041;-80
2022/11/20 09:12:38;;;;;;;44.38;25.08;;;;;;;1.95;69.81;99759.41;2162800;82;21013;-84
2022/11/20 09:15:39;;;;;;;45.75;26.07;;;;;;;2.04;68.86;99765.22;2153281;81;21029;-81
2022/11/20 09:18:40;;;;;;;;;;;;;;;2.18;69.20;99765.44;2156142;81;21509;-88
2022/11/20 09:21:50;;;;;;;44.35;24.47;;;;;;;2.44;68.97;99762.87;2154201;81;20187;-85
2022/11/20 09:24:55;;;;;;;41.83;24.50;;;;;;;2.57;68.32;99763.20;2157637;81;21065;-85
2022/11/20 09:27:59;;;;;;;43.83;24.25;;;;;;;2.81;68.19;99755.13;2151705;81;21020;-85
2022/11/20 09:31:00;;;;;;;41.13;23.92;;;;;;;3.00;67.53;99757.06;2148443;81;21046;-86
2022/11/20 09:34:03;;;;;;;45.48;24.87;;;;;;;3.11;67.23;99753.91;2155581;81;21073;-86
2022/11/20 09:37:05;;;;;;;44.23;25.27;;;;;;;3.06;65.61;99745.58;2154364;81;20943;-86
2022/11/20 09:40:09;;;;;;;46.75;25.43;;;;;;;2.94;65.44;99738.75;2123838;81;21005;-86
2022/11/20 09:43:51;;;;;;;45.50;24.67;;;;;;;2.91;66.16;99736.38;2152522;81;21109;-86
2022/11/20 09:47:01;;;;;;;44.00;25.05;;;;;;;2.89;64.79;99740.42;2157661;81;21041;-90
2022/11/20 09:50:38;;;;;;;41.58;24.12;;;;;;;2.86;65.18;99730.69;2148842;81;22497;-83
2022/11/20 09:54:09;;;;;;;46.95;24.85;;;;;;;2.78;65.09;99733.10;2129530;81;21064;-87
2022/11/20 09:57:19;;;;;;;38.98;22.50;;;;;;;2.79;65.90;99726.44;2155320;81;21017;-86
2022/11/20 10:00:21;;;;;;;43.13;22.90;;;;;;;3.05;65.17;99720.34;2156283;81;21026;-88
2022/11/20 10:04:06;;;;;;;39.78;23.40;;;;;;;3.03;62.94;99713.08;2153332;81;21016;-88
2022/11/20 10:07:13;;;;;;;41.53;24.20;;;;;;;2.82;63.78;99718.33;2151655;81;21091;-87
2022/11/20 10:10:33;;;;;;;39.92;22.95;;;;;;;2.66;62.50;99710.06;2152794;81;21004;-86
2022/11/20 10:13:49;;;;;;;37.55;22.67;;;;;;;2.49;62.54;99704.89;2149059;81;21577;-87
2022/11/20 10:17:05;;;;;;;38.80;23.22;;;;;;;2.58;63.34;99709.37;2155266;81;21515;-87
2022/11/20 10:20:45;;;;;;;40.58;23.30;;;;;;;2.76;63.33;99708.81;2156412;81;21042;-86
2022/11/20 10:24:03;;;;;;;40.60;22.13;;;;;;;3.00;63.14;99696.30;2155950;81;21113;-89
2022/11/20 10:27:32;;;;;;;39.33;21.93;;;;;;;3.16;62.58;99700.27;2161929;81;20975;-85
2022/11/20 10:30:38;;;;;;;41.92;22.70;;;;;;;3.03;61.32;99699.97;2157002;81;21065;-85
2022/11/20 10:33:45;;;;;;;38.05;21.75;;;;;;;2.90;61.61;99692.77;2161368;81;21140;-84
2022/11/20 10:37:13;;;;;;;37.13;20.10;;;;;;;2.71;59.65;99688.25;2126958;81;21018;-84
2022/11/20 10:40:37;;;;;;;35.35;20.70;;;;;;;2.54;60.84;99694.88;2156073;81;21057;-85
2022/11/20 10:43:38;;;;;;;39.18;21.07;;;;;;;2.49;60.55;99672.64;2153983;81;21048;-85
2022/11/20 10:46:43;;;;;;;35.52;21.25;;;;;;;2.56;61.37;99654.99;2150199;81;21082;-85
2022/11/20 10:49:49;;;;;;;36.38;20.57;;;;;;;2.48;58.95;99654.79;2156848;81;21097;-85
2022/11/20 10:53:28;;;;;;;38.10;19.62;;;;;;;2.45;60.61;99657.66;2182728;80;21770;-84
2022/11/20 10:56:47;;;;;;;39.18;20.85;;;;;;;2.45;60.55;99655.88;2159200;81;21028;-85
2022/11/20 11:00:04;;;;;;;33.10;19.25;;;;;;;2.49;60.34;99660.37;2177294;80;21105;-85
2022/11/20 11:03:26;;;;;;;33.58;19.45;;;;;;;2.52;59.68;99656.19;2172126;80;20958;-86
2022/11/20 11:06:37;;;;;;;32.45;19.62;;;;;;;2.62;60.21;99647.93;2193122;80;21489;-86
2022/11/20 11:09:45;;;;;;;34.60;17.57;;;;;;;2.64;59.63;99651.23;2172671;80;20984;-84
2022/11/20 11:12:48;;;;;;;33.02;17.70;;;;;;;2.69;59.54;99645.13;2172956;80;21060;-84
2022/11/20 11:15:49;;;;;;;31.25;18.20;;;;;;;2.78;59.56;99644.84;2169170;80;21143;-84
2022/11/20 11:18:51;;;;;;;28.83;16.48;;;;;;;2.93;59.26;99644.06;2197545;79;21036;-84
2022/11/20 11:22:09;;;;;;;31.30;17.50;;;;;;;2.94;58.45;99640.95;2199352;79;21005;-85
2022/11/20 11:24:59;;;;;;;31.50;18.35;;;;;;;2.92;58.97;99637.13;2142356;81;21024;-83
2022/11/20 11:28:05;;;;;;;28.23;16.60;;;;;;;2.96;55.82;99632.00;2187902;80;21514;-83
2022/11/20 11:31:08;;;;;;;30.88;17.07;;;;;;;2.73;57.02;99629.16;2175101;80;20963;-85
2022/11/20 11:34:17;;;;;;;23.32;13.62;;;;;;;2.81;58.16;99625.41;2175312;81;21547;-84
2022/11/20 11:37:21;;;;;;;26.68;15.32;;;;;;;2.84;57.09;99624.67;2212256;79;21046;-84
2022/11/20 11:40:23;;;;;;;26.42;15.35;;;;;;;2.86;57.69;99622.76;2210839;79;21578;-87
2022/11/20 11:46:53;;;;;;;24.50;14.65;;;;;;;2.86;57.50;99610.97;2173979;81;21048;-84
2022/11/20 11:50:24;;;;;;;21.97;12.78;;;;;;;2.85;55.45;99598.02;2156311;80;20989;-84
2022/11/20 11:53:26;;;;;;;21.35;12.45;;;;;;;2.76;56.94;99601.39;2168731;81;21036;-84
2022/11/20 11:56:32;;;;;;;23.42;12.78;;;;;;;2.72;56.92;99594.76;2154205;82;21063;-84
2022/11/20 12:00:04;;;;;;;29.10;15.40;;;;;;;2.67;56.42;99589.41;2162099;82;21039;-84
2022/11/20 12:03:35;;;;;;;20.90;12.65;;;;;;;2.59;56.93;99572.68;2148305;82;21054;-84
2022/11/20 12:06:39;;;;;;;21.75;12.65;;;;;;;2.55;57.07;99580.45;2158135;82;21011;-79
2022/11/20 12:09:46;;;;;;;20.02;12.73;;;;;;;2.70;57.59;99583.08;2155479;82;21493;-84
2022/11/20 12:12:57;;;;;;;24.80;13.70;;;;;;;2.72;55.77;99581.66;2155380;82;21466;-86
2022/11/20 12:16:00;;;;;;;;;;;;;;;2.47;56.85;99575.85;2160939;82;20996;-86
2022/11/20 12:19:01;;;;;;;28.92;14.18;;;;;;;2.44;56.98;99573.01;2152906;82;20161;-88
2022/11/20 12:22:28;;;;;;;22.15;14.20;;;;;;;2.39;57.04;99573.89;2157279;82;21035;-87
2022/11/20 12:25:36;;;;;;;23.10;14.65;;;;;;;2.40;57.17;99576.03;2155576;80;20947;-89
2022/11/20 12:28:50;;;;;;;25.20;13.38;;;;;;;2.44;57.64;99577.42;2135738;82;21116;-88
2022/11/20 12:32:02;;;;;;;28.38;14.63;;;;;;;2.49;57.46;99577.05;2150083;82;21060;-85
2022/11/20 12:35:27;;;;;;;23.65;13.30;;;;;;;2.48;57.41;99570.98;2156927;82;21020;-87
2022/11/20 12:38:55;;;;;;;25.82;14.78;;;;;;;2.52;57.64;99570.24;2144568;82;21162;-86
2022/11/20 12:46:24;;;;;;;22.55;13.13;;;;;;;2.47;57.73;99570.61;2161548;82;21437;-86
2022/11/20 12:49:57;;;;;;;25.20;15.05;;;;;;;2.41;57.53;99571.95;2156448;82;21115;-85
2022/11/20 12:53:05;;;;;;;22.35;13.35;;;;;;;2.27;57.73;99578.81;2154387;81;21017;-85
2022/11/20 12:57:01;;;;;;;22.35;13.40;;;;;;;2.14;57.64;99568.55;2164594;82;20969;-88
2022/11/20 13:00:20;;;;;;;25.05;12.98;;;;;;;2.10;58.02;99573.66;2167020;82;20942;-81
2022/11/20 13:03:48;;;;;;;22.82;12.28;;;;;;;2.14;58.24;99565.08;2162106;81;21029;-82
2022/11/20 13:06:50;;;;;;;24.40;12.75;;;;;;;2.08;57.93;99555.94;2153134;82;21084;-82
2022/11/20 13:09:52;;;;;;;24.25;13.88;;;;;;;1.98;58.00;99554.56;2129042;82;21026;-83
2022/11/20 13:13:14;;;;;;;21.17;13.75;;;;;;;1.90;58.21;99557.46;2169081;82;21072;-90
2022/11/20 13:16:34;;;;;;;22.05;13.18;;;;;;;1.83;58.42;99557.59;2168449;82;21634;-83
2022/11/20 13:19:35;;;;;;;24.10;14.25;;;;;;;1.74;58.49;99553.94;2161393;82;21008;-84
2022/11/20 13:22:58;;;;;;;23.32;13.83;;;;;;;1.64;58.63;99539.48;2157838;80;20980;-83
2022/11/20 13:26:15;;;;;;;24.03;13.63;;;;;;;1.62;59.05;99537.45;2158903;82;21712;-83
2022/11/20 13:29:19;;;;;;;19.30;12.80;;;;;;;1.63;59.05;99536.49;2167983;81;21046;-84
2022/11/20 13:32:21;;;;;;;20.65;12.55;;;;;;;1.61;58.97;99522.73;2156097;82;21007;-83
2022/11/20 13:35:38;;;;;;;27.65;14.83;;;;;;;1.56;59.17;99520.48;2165070;82;21595;-83
2022/11/20 13:38:55;;;;;;;22.32;12.50;;;;;;;1.54;59.28;99517.62;2168780;81;21649;-83
2022/11/20 13:42:03;;;;;;;26.17;14.53;;;;;;;1.53;59.29;99506.83;2164741;82;21786;-90
2022/11/20 13:45:12;;;;;;;21.77;12.43;;;;;;;1.49;59.37;99498.86;2105884;82;21018;-83
2022/11/20 13:48:22;;;;;;;19.77;12.20;;;;;;;1.50;59.50;99492.70;2161961;81;21069;-91
2022/11/20 13:51:28;;;;;;;19.60;12.18;;;;;;;1.51;59.53;99499.58;2158145;81;21501;-83
2022/11/20 13:54:43;;;;;;;24.25;13.88;;;;;;;1.49;59.58;99494.48;2166019;81;21064;-84
2022/11/20 13:57:50;;;;;;;23.60;13.35;;;;;;;1.48;59.64;99490.67;2162025;81;21050;-84
2022/11/20 14:00:58;;;;;;;21.02;12.35;;;;;;;1.45;59.83;99500.08;2161144;81;21065;-84
2022/11/20 14:04:00;;;;;;;22.95;13.20;;;;;;;1.42;59.97;99501.63;2163310;81;20990;-86
2022/11/20 14:07:01;;;;;;;24.35;13.95;;;;;;;1.39;60.11;99495.34;2163170;81;20961;-83
2022/11/20 14:10:03;;;;;;;26.15;14.30;;;;;;;1.38;60.14;99487.12;2137116;82;21542;-87
2022/11/20 14:13:19;;;;;;;24.50;13.58;;;;;;;1.33;60.31;99487.03;2170901;81;21045;-83
2022/11/20 14:16:25;;;;;;;29.10;16.23;;;;;;;1.30;60.50;99489.90;2131663;82;21033;-84
2022/11/20 14:19:30;;;;;;;30.82;17.92;;;;;;;1.23;60.67;99486.10;2155311;82;20961;-85
2022/11/20 14:22:33;;;;;;;25.63;16.33;;;;;;;1.19;60.85;99483.88;2161524;82;21667;-84
2022/11/20 14:25:34;;;;;;;24.02;15.05;;;;;;;1.14;60.93;99480.79;2136605;82;21116;-87
2022/11/20 14:28:35;;;;;;;23.47;14.40;;;;;;;1.06;61.08;99475.69;2165754;81;21015;-84
2022/11/20 14:31:36;;;;;;;22.82;13.78;;;;;;;0.99;61.27;99473.70;2166600;80;20962;-84
2022/11/20 14:34:40;;;;;;;23.60;14.43;;;;;;;0.91;61.43;99468.25;2141842;82;21558;-88
2022/11/20 14:37:41;;;;;;;26.00;14.38;;;;;;;0.80;61.65;99473.83;2158567;81;21066;-80